Time;durP1;ratioP1;P1;durP2;ratioP2;P2;SDS_P1;SDS_P2;PMS_P1;PMS_P2;Temp;Humidity;BMP_temperature;BMP_pressure;BME280_temperature;BME280_humidity;BME280_pressure;Samples;Min_cycle;Max_cycle;Signal;HPM_P1;HPM_P2
2022/10/06 00:01:11;;;;;;;24.40;13.67;;;;;;;11.08;100.00;-12353.47;5135934;27;20259;-65
2022/10/06 00:03:40;;;;;;;22.30;15.77;;;;;;;10.99;100.00;-11715.03;5135516;27;20183;-64
2022/10/06 00:06:08;;;;;;;28.60;14.87;;;;;;;10.86;100.00;-11394.69;5117742;27;20209;-64
2022/10/06 00:08:36;;;;;;;22.57;13.60;;;;;;;10.86;100.00;-10438.88;5135531;27;20175;-64
2022/10/06 00:11:03;;;;;;;22.67;14.03;;;;;;;10.82;100.00;-9482.38;5135377;27;20186;-64
2022/10/06 00:13:31;;;;;;;22.67;15.07;;;;;;;10.83;100.00;-8844.97;5135289;27;20272;-64
2022/10/06 00:15:58;;;;;;;28.00;16.10;;;;;;;10.59;100.00;-9480.03;5135175;27;20194;-64
2022/10/06 00:18:26;;;;;;;27.00;17.03;;;;;;;10.57;100.00;-9479.88;5135521;27;20573;-65
2022/10/06 00:20:58;;;;;;;35.50;17.77;;;;;;;10.52;100.00;-10753.41;5135043;27;20226;-64
2022/10/06 00:23:25;;;;;;;35.03;17.57;;;;;;;10.48;100.00;-10434.53;5135335;27;20187;-65
2022/10/06 00:25:52;;;;;;;34.83;18.03;;;;;;;10.25;100.00;-10431.75;5135044;27;20187;-65
2022/10/06 00:28:20;;;;;;;25.83;17.70;;;;;;;10.37;100.00;-10433.16;5134905;27;20200;-64
2022/10/06 00:30:47;;;;;;;42.57;18.57;;;;;;;10.43;100.00;-10752.34;5134978;27;20187;-64
2022/10/06 00:33:16;;;;;;;39.93;21.30;;;;;;;10.49;100.00;-11389.88;5135172;27;20265;-64
2022/10/06 00:35:43;;;;;;;42.27;20.07;;;;;;;10.26;100.00;-11068.56;5134806;27;20186;-63
2022/10/06 00:38:16;;;;;;;47.77;23.13;;;;;;;10.01;100.00;-11701.59;5134637;27;20197;-64
2022/10/06 00:40:45;;;;;;;59.07;28.30;;;;;;;9.88;100.00;-13289.53;5135107;27;20553;-63
2022/10/06 00:43:45;;;;;;;57.20;27.50;;;;;;;9.83;100.00;-13606.59;5135326;27;20187;-64
2022/10/06 00:46:15;;;;;;;66.53;32.10;;;;;;;9.76;100.00;-13287.53;5134981;27;20187;-63
2022/10/06 00:48:43;;;;;;;68.43;32.83;;;;;;;9.85;100.00;-13924.66;5135043;27;20648;-63
2022/10/06 00:51:10;;;;;;;76.63;38.93;;;;;;;9.92;100.00;-13608.06;5134807;27;20209;-64
2022/10/06 00:53:39;;;;;;;71.53;38.07;;;;;;;9.87;100.00;-12971.47;5134531;27;20183;-64
2022/10/06 00:56:06;;;;;;;77.70;36.47;;;;;;;9.59;100.00;-12649.41;5134889;27;20217;-65
2022/10/06 00:58:33;;;;;;;71.67;35.17;;;;;;;9.46;100.00;-14870.56;5134676;27;20647;-64
2022/10/06 01:01:00;;;;;;;68.00;31.70;;;;;;;9.25;100.00;-16135.88;5134508;27;20182;-64
2022/10/06 01:03:31;;;;;;;62.83;31.63;;;;;;;9.35;100.00;-17724.31;5134706;27;20565;-64
2022/10/06 01:06:01;;;;;;;64.97;33.37;;;;;;;9.52;100.00;-17411.06;5134167;27;20197;-64
2022/10/06 01:08:28;;;;;;;77.83;35.73;;;;;;;9.61;100.00;-17413.16;5134189;27;20556;-65
2022/10/06 01:10:57;;;;;;;68.83;33.80;;;;;;;9.68;100.00;-17097.16;5134174;27;20194;-64
2022/10/06 01:13:25;;;;;;;73.47;33.13;;;;;;;9.34;100.00;-16137.78;5134298;27;20190;-64
2022/10/06 01:15:56;;;;;;;69.83;33.40;;;;;;;9.21;100.00;-16769.56;5134109;27;20186;-64
2022/10/06 01:18:26;;;;;;;77.00;35.60;;;;;;;9.16;100.00;-15816.84;5134092;27;20198;-63
2022/10/06 01:21:00;;;;;;;77.17;36.83;;;;;;;9.26;100.00;-16770.56;5134071;27;20225;-64
2022/10/06 01:23:31;;;;;;;74.23;38.80;;;;;;;9.25;100.00;-17721.94;5134680;27;20186;-64
2022/10/06 01:26:00;;;;;;;78.30;36.40;;;;;;;9.34;100.00;-18041.22;5133917;27;20187;-64
2022/10/06 01:28:27;;;;;;;92.87;41.43;;;;;;;9.49;100.00;-18044.84;5133852;27;20183;-64
2022/10/06 01:30:57;;;;;;;80.40;40.63;;;;;;;9.52;100.00;-18045.56;5134208;27;20641;-65
2022/10/06 01:33:24;;;;;;;97.33;43.43;;;;;;;9.75;100.00;-18051.03;5134190;27;20194;-64
2022/10/06 01:35:52;;;;;;;90.53;41.23;;;;;;;9.72;100.00;-17732.97;5133632;27;20277;-64
2022/10/06 01:38:20;;;;;;;72.10;37.57;;;;;;;9.82;100.00;-17417.91;5133868;27;20195;-65
2022/10/06 01:40:51;;;;;;;68.93;35.97;;;;;;;9.80;100.00;-14241.53;5133715;27;20205;-65
2022/10/06 01:43:18;;;;;;;65.17;32.60;;;;;;;9.91;100.00;-12018.31;5133803;27;20652;-64
2022/10/06 01:45:45;;;;;;;57.87;29.47;;;;;;;9.89;100.00;-10109.44;5133564;27;20182;-64
2022/10/06 01:48:12;;;;;;;76.33;34.80;;;;;;;9.55;100.00;-10105.66;5133379;27;20277;-64
2022/10/06 01:50:41;;;;;;;61.77;32.43;;;;;;;9.61;100.00;-11696.19;5133230;27;20402;-63
2022/10/06 01:53:07;;;;;;;59.67;32.30;;;;;;;9.67;100.00;-11696.94;5133669;27;20698;-63
2022/10/06 01:55:35;;;;;;;64.10;30.80;;;;;;;9.77;100.00;-12016.22;5133638;27;20187;-64
2022/10/06 01:58:03;;;;;;;59.03;30.97;;;;;;;9.39;100.00;-12010.81;5133649;27;20183;-63
2022/10/06 02:00:30;;;;;;;51.43;30.10;;;;;;;9.41;100.00;-10422.03;5133572;27;20626;-64
2022/10/06 02:02:57;;;;;;;47.67;25.87;;;;;;;9.23;100.00;-12008.59;5133222;27;20566;-63
2022/10/06 02:05:24;;;;;;;36.53;23.30;;;;;;;9.23;100.00;-13596.50;5133360;27;20193;-64
2022/10/06 02:07:51;;;;;;;36.90;23.27;;;;;;;9.14;100.00;-14864.56;5115158;27;20187;-63
2022/10/06 02:10:18;;;;;;;42.43;24.03;;;;;;;9.19;100.00;-15817.47;5133050;27;20207;-64
2022/10/06 02:12:49;;;;;;;35.90;23.03;;;;;;;8.94;100.00;-16129.56;5133332;27;20675;-63
2022/10/06 02:15:17;;;;;;;44.60;24.00;;;;;;;9.18;100.00;-16134.50;5114804;27;20186;-64
2022/10/06 02:17:44;;;;;;;48.50;26.97;;;;;;;9.00;100.00;-15496.47;5114782;27;20633;-64
2022/10/06 02:20:11;;;;;;;54.07;30.10;;;;;;;8.86;100.00;-17078.81;5132054;27;20226;-65
2022/10/06 02:22:39;;;;;;;72.27;37.30;;;;;;;8.73;100.00;-18026.59;5132864;27;20183;-64
2022/10/06 02:25:07;;;;;;;149.90;72.60;;;;;;;9.10;100.00;-18035.41;5133137;27;20277;-63
2022/10/06 02:27:34;;;;;;;125.40;62.67;;;;;;;9.22;100.00;-18040.06;5132883;27;20183;-63
2022/10/06 02:30:01;;;;;;;153.70;75.40;;;;;;;9.25;100.00;-18040.91;5133009;27;20202;-64
2022/10/06 02:32:35;;;;;;;151.07;77.27;;;;;;;9.38;100.00;-18044.03;5132644;27;20182;-64
2022/10/06 02:35:06;;;;;;;171.10;83.10;;;;;;;9.39;100.00;-18044.28;5115136;28;20183;-64
2022/10/06 02:37:33;;;;;;;169.57;83.07;;;;;;;9.41;100.00;-18044.66;5132606;27;20186;-64
2022/10/06 02:40:00;;;;;;;171.27;84.37;;;;;;;9.49;100.00;-18046.72;5132563;27;20189;-64
2022/10/06 02:42:27;;;;;;;176.20;90.13;;;;;;;9.69;100.00;-18051.31;5132862;27;20182;-64
2022/10/06 02:44:54;;;;;;;206.20;106.97;;;;;;;9.80;100.00;-18053.97;5133050;28;20586;-64
2022/10/06 02:47:22;;;;;;;181.23;98.00;;;;;;;9.91;100.00;-18056.63;5132626;28;20189;-64
2022/10/06 02:49:50;;;;;;;220.07;113.27;;;;;;;9.99;100.00;-18058.56;5132644;28;20219;-64
2022/10/06 02:52:17;;;;;;;212.50;117.33;;;;;;;9.98;100.00;-18056.47;5114710;28;20629;-64
2022/10/06 02:54:44;;;;;;;239.77;134.47;;;;;;;10.15;100.00;-17743.03;5132370;28;20198;-65
2022/10/06 02:57:11;;;;;;;265.20;152.50;;;;;;;10.19;100.00;-16790.94;5132762;28;20206;-64
2022/10/06 02:59:38;;;;;;;258.37;149.17;;;;;;;10.24;100.00;-14567.41;5132690;28;20206;-64
2022/10/06 03:02:05;;;;;;;255.43;143.93;;;;;;;10.29;100.00;-12341.88;5132489;28;20179;-64
2022/10/06 03:04:32;;;;;;;239.70;138.27;;;;;;;10.07;100.00;-10111.44;5132629;28;20498;-63
2022/10/06 03:07:00;;;;;;;241.33;133.40;;;;;;;10.08;100.00;-9793.25;5114587;28;20190;-64
2022/10/06 03:09:27;;;;;;;204.10;116.33;;;;;;;9.97;100.00;-9473.78;5132301;28;20206;-64
2022/10/06 03:11:54;;;;;;;187.87;108.67;;;;;;;9.55;100.00;-9469.59;5132211;28;20183;-63
2022/10/06 03:14:21;;;;;;;214.27;116.50;;;;;;;9.76;100.00;-10426.09;5132201;28;20182;-62
2022/10/06 03:16:49;;;;;;;204.10;118.07;;;;;;;9.74;100.00;-10425.78;5132210;28;20222;-64
2022/10/06 03:19:15;;;;;;;214.30;116.67;;;;;;;9.73;100.00;-10743.72;5132365;28;20234;-64
2022/10/06 03:21:43;;;;;;;178.77;104.63;;;;;;;9.62;100.00;-9788.34;5132580;28;20630;-64
2022/10/06 03:24:12;;;;;;;181.40;101.47;;;;;;;9.49;100.00;-10422.91;5132505;28;20554;-63
2022/10/06 03:26:41;;;;;;;195.57;103.23;;;;;;;9.50;100.00;-11058.88;5132100;28;20183;-64
2022/10/06 03:29:08;;;;;;;184.10;102.60;;;;;;;9.77;100.00;-11698.34;5132406;28;20205;-64
2022/10/06 03:31:35;;;;;;;184.53;97.83;;;;;;;9.76;100.00;-12334.00;5133899;27;20186;-64
2022/10/06 03:34:03;;;;;;;182.47;99.50;;;;;;;9.69;100.00;-12650.88;5136533;27;20563;-64
2022/10/06 03:36:33;;;;;;;200.60;105.83;;;;;;;9.76;100.00;-12651.88;5136244;27;20201;-64
2022/10/06 03:39:00;;;;;;;188.63;101.43;;;;;;;9.47;100.00;-13282.94;5136104;27;20183;-63
2022/10/06 03:41:30;;;;;;;174.10;99.03;;;;;;;9.72;100.00;-12969.09;5136333;27;20222;-64
2022/10/06 03:43:58;;;;;;;194.30;105.30;;;;;;;9.68;100.00;-12968.53;5135995;27;20185;-63
2022/10/06 03:46:27;;;;;;;186.47;104.63;;;;;;;9.67;100.00;-12650.56;5136413;27;20175;-63
2022/10/06 03:48:56;;;;;;;188.60;93.90;;;;;;;9.79;100.00;-12334.50;5136066;27;20186;-64
2022/10/06 03:51:24;;;;;;;167.17;93.37;;;;;;;9.79;100.00;-11062.59;5135951;27;20203;-64
2022/10/06 03:53:52;;;;;;;167.07;91.30;;;;;;;9.76;100.00;-8835.25;5135961;27;20189;-63
2022/10/06 03:56:21;;;;;;;166.10;93.53;;;;;;;9.83;100.00;-8199.25;5135840;27;20183;-62
2022/10/06 03:58:52;;;;;;;196.87;116.70;;;;;;;9.84;100.00;-7881.00;5135566;27;20191;-64
2022/10/06 04:01:21;;;;;;;211.63;125.87;;;;;;;9.89;100.00;-7244.47;5135784;27;20193;-64
2022/10/06 04:03:48;;;;;;;240.83;140.97;;;;;;;9.89;100.00;-6926.03;5135506;27;20183;-64
2022/10/06 04:06:17;;;;;;;245.83;146.40;;;;;;;10.00;100.00;-6608.09;5135342;27;20179;-64
2022/10/06 04:08:45;;;;;;;283.43;170.60;;;;;;;10.00;100.00;-5333.53;5135427;27;20193;-64
2022/10/06 04:11:14;;;;;;;301.40;181.53;;;;;;;10.01;100.00;-4696.06;5135625;27;20218;-64
2022/10/06 04:13:41;;;;;;;315.57;195.87;;;;;;;10.01;100.00;-3739.63;5135460;27;20194;-64
2022/10/06 04:16:15;;;;;;;307.27;187.03;;;;;;;10.01;100.00;-3420.72;5135234;27;20289;-64
2022/10/06 04:18:43;;;;;;;302.83;176.83;;;;;;;9.97;100.00;-4058.41;5135440;27;20190;-64
2022/10/06 04:21:10;;;;;;;295.43;169.07;;;;;;;9.96;100.00;-3420.72;5134918;27;20723;-63
2022/10/06 04:23:37;;;;;;;291.07;161.73;;;;;;;9.85;100.00;-2782.97;5135441;27;20654;-63
2022/10/06 04:26:08;;;;;;;276.53;155.43;;;;;;;10.00;100.00;-1187.69;5135013;27;20187;-63
2022/10/06 04:28:36;;;;;;;286.43;161.43;;;;;;;9.92;100.00;1365.59;5134902;27;20183;-64
2022/10/06 04:31:05;;;;;;;312.40;170.43;;;;;;;9.87;100.00;3601.00;5135145;27;20672;-63
2022/10/06 04:33:34;;;;;;;302.43;168.23;;;;;;;9.81;100.00;4239.44;5135054;27;20187;-64
2022/10/06 04:36:03;;;;;;;312.20;181.97;;;;;;;9.98;100.00;3602.22;5135138;27;20191;-63
2022/10/06 04:38:32;;;;;;;312.47;177.37;;;;;;;10.08;100.00;6161.28;5135021;27;20186;-63
2022/10/06 04:41:05;;;;;;;309.57;179.27;;;;;;;10.14;100.00;8722.38;5134852;27;20206;-63
2022/10/06 04:43:33;;;;;;;290.80;178.33;;;;;;;10.06;100.00;11282.66;5116043;27;20223;-63
2022/10/06 04:46:00;;;;;;;287.77;168.37;;;;;;;10.27;100.00;13531.53;5134653;27;20199;-64
2022/10/06 04:48:28;;;;;;;282.30;165.63;;;;;;;10.69;100.00;17074.63;5134705;27;20221;-63
2022/10/06 04:50:59;;;;;;;277.43;166.33;;;;;;;11.04;100.00;23520.94;5134620;27;20676;-63
2022/10/06 04:53:26;;;;;;;279.47;170.03;;;;;;;11.23;100.00;33853.97;5134640;27;20186;-64
2022/10/06 04:56:01;;;;;;;299.73;177.47;;;;;;;11.48;100.00;46175.50;5134639;27;20269;-65
2022/10/06 04:58:31;;;;;;;304.80;186.27;;;;;;;11.80;100.00;60189.53;5134712;27;20218;-63
2022/10/06 05:00:59;;;;;;;295.87;176.60;;;;;;;11.78;100.00;70634.38;5134942;27;20243;-63
2022/10/06 05:03:27;;;;;;;297.77;188.27;;;;;;;11.98;100.00;73603.59;5134344;27;20182;-64
2022/10/06 05:06:03;;;;;;;301.80;184.03;;;;;;;12.30;100.00;92364.19;5134191;27;20179;-64
2022/10/06 05:08:30;;;;;;;285.27;178.23;;;;;;;12.57;100.00;126172.91;5134360;27;20198;-64
2022/10/06 05:11:00;;;;;;;293.57;180.43;;;;;;;12.64;100.00;139228.56;5134392;27;20199;-65
2022/10/06 05:13:27;;;;;;;311.70;188.90;;;;;;;13.06;100.00;149322.19;5134573;27;20585;-66
2022/10/06 05:15:58;;;;;;;309.23;192.70;;;;;;;13.37;100.00;149399.47;5134702;27;20187;-58
2022/10/06 05:18:26;;;;;;;321.57;204.70;;;;;;;13.35;100.00;149393.16;5134477;27;20183;-57
2022/10/06 05:20:56;;;;;;;323.10;207.63;;;;;;;13.37;100.00;149398.19;5133897;27;20233;-64
2022/10/06 05:23:26;;;;;;;326.43;202.50;;;;;;;13.19;100.00;149353.91;5134186;27;20187;-63
2022/10/06 05:25:54;;;;;;;312.70;199.27;;;;;;;13.14;100.00;149342.50;5134358;27;20205;-65
2022/10/06 05:28:22;;;;;;;334.90;195.63;;;;;;;13.04;100.00;148679.75;5134433;27;20193;-65
2022/10/06 05:30:57;;;;;;;328.27;195.13;;;;;;;13.38;100.00;149400.72;5134291;27;20207;-65
2022/10/06 05:33:24;;;;;;;316.93;190.67;;;;;;;13.70;100.00;149483.13;5134342;27;20189;-65
2022/10/06 05:35:51;;;;;;;301.97;189.93;;;;;;;13.81;100.00;149508.44;5134417;27;20195;-65
2022/10/06 05:38:18;;;;;;;307.60;188.40;;;;;;;14.12;100.00;149588.31;5134009;27;20183;-65
2022/10/06 05:40:47;;;;;;;281.57;182.03;;;;;;;14.44;100.00;149666.94;5134008;27;20285;-66
2022/10/06 05:43:14;;;;;;;284.63;172.07;;;;;;;14.66;100.00;149722.72;5133866;27;20269;-65
2022/10/06 05:45:40;;;;;;;265.13;166.53;;;;;;;14.90;100.00;149783.59;5133871;27;20197;-66
2022/10/06 05:48:09;;;;;;;269.60;166.47;;;;;;;15.15;100.00;149845.75;5133937;27;20193;-67
2022/10/06 05:50:36;;;;;;;264.50;165.07;;;;;;;15.45;100.00;149921.88;5133512;27;20315;-66
2022/10/06 05:53:03;;;;;;;258.50;161.67;;;;;;;15.35;100.00;149896.53;5133751;27;20651;-67
2022/10/06 05:55:30;;;;;;;242.10;149.33;;;;;;;15.67;100.00;149976.50;5133819;27;20582;-66
2022/10/06 05:57:59;;;;;;;225.07;138.33;;;;;;;16.43;100.00;150166.91;5133537;27;20194;-67
2022/10/06 06:00:26;;;;;;;213.47;135.87;;;;;;;16.69;100.00;150231.72;5133874;27;20189;-66
2022/10/06 06:02:53;;;;;;;169.97;105.47;;;;;;;16.89;100.00;150282.50;5133547;27;20538;-67
2022/10/06 06:05:20;;;;;;;151.83;94.43;;;;;;;16.91;100.00;150287.59;5133717;27;20561;-66
2022/10/06 06:07:47;;;;;;;133.17;74.97;;;;;;;17.38;100.00;150405.75;5133690;27;20266;-66
2022/10/06 06:10:13;;;;;;;120.30;74.40;;;;;;;17.44;100.00;150421.00;5133362;27;20206;-67
2022/10/06 06:12:41;;;;;;;128.00;74.90;;;;;;;17.59;100.00;150459.19;5133444;27;20625;-67
2022/10/06 06:17:54;;;;;;;126.07;74.07;;;;;;;17.93;100.00;150543.06;5133277;27;20659;-66
2022/10/06 06:20:21;;;;;;;123.73;74.27;;;;;;;18.32;100.00;150642.25;5132956;27;20252;-67
2022/10/06 06:22:52;;;;;;;126.80;77.20;;;;;;;18.91;100.00;150789.81;5133505;27;20189;-68
2022/10/06 06:25:19;;;;;;;122.77;69.67;;;;;;;18.71;100.00;150740.22;5134122;27;20652;-66
2022/10/06 06:27:46;;;;;;;115.27;59.47;;;;;;;19.06;100.00;150827.97;5114916;27;20205;-67
2022/10/06 06:30:15;;;;;;;95.03;56.33;;;;;;;19.35;100.00;150901.75;5132990;27;20189;-67
2022/10/06 06:32:41;;;;;;;96.23;55.93;;;;;;;19.56;100.00;150955.25;5133210;27;20530;-67
2022/10/06 06:35:11;;;;;;;100.50;45.97;;;;;;;20.12;100.00;151095.28;5133331;27;20183;-67
2022/10/06 06:37:38;;;;;;;77.23;40.23;;;;;;;20.34;100.00;151150.09;5132937;27;20187;-66
2022/10/06 06:40:06;;;;;;;57.83;38.50;;;;;;;20.43;100.00;151173.00;5114952;28;20194;-68
2022/10/06 06:42:33;;;;;;;50.10;34.73;;;;;;;20.67;100.00;151232.84;5133407;27;20670;-68
2022/10/06 06:45:00;;;;;;;62.47;35.97;;;;;;;21.00;100.00;151316.97;5133353;28;20643;-67
2022/10/06 06:47:28;;;;;;;44.57;30.57;;;;;;;20.92;100.00;151297.81;5133386;28;20622;-63
2022/10/06 06:49:56;;;;;;;35.30;26.87;;;;;;;21.11;100.00;151343.69;5132356;28;20281;-66
2022/10/06 06:52:24;;;;;;;36.73;26.63;;;;;;;21.36;100.00;151408.72;5132565;28;20301;-63
2022/10/06 06:54:53;;;;;;;37.75;26.85;;;;;;;21.44;100.00;151427.84;5132787;28;20186;-63
2022/10/06 06:57:20;;;;;;;35.58;26.85;;;;;;;21.65;100.00;151481.38;5132291;28;20197;-63
2022/10/06 06:59:47;;;;;;;43.97;29.15;;;;;;;21.50;100.00;151441.88;5132282;28;20182;-64
2022/10/06 07:02:15;;;;;;;38.13;29.58;;;;;;;21.85;100.00;151532.34;5132316;28;20181;-63
2022/10/06 07:04:43;;;;;;;47.67;33.33;;;;;;;21.82;100.00;151523.44;5132270;28;20222;-63
2022/10/06 07:07:11;;;;;;;58.65;36.13;;;;;;;22.05;100.00;151580.84;5135079;27;20190;-64
2022/10/06 07:09:38;;;;;;;54.75;38.63;;;;;;;22.57;100.00;151713.50;5136455;27;20221;-64
2022/10/06 07:12:05;;;;;;;63.25;41.15;;;;;;;22.89;96.46;151792.59;5136577;27;20253;-63
2022/10/06 07:14:31;;;;;;;54.30;39.13;;;;;;;22.70;97.36;151745.41;5136308;27;20186;-64
2022/10/06 07:25:26;;;;;;;24.80;22.27;;;;;;;23.55;88.15;151961.03;5136439;27;20213;-64
2022/10/06 07:27:53;;;;;;;24.73;22.25;;;;;;;23.86;86.72;152038.91;5136440;27;20202;-64
2022/10/06 07:30:22;;;;;;;28.38;21.95;;;;;;;24.06;85.67;152088.72;5136513;27;20665;-64
2022/10/06 07:32:50;;;;;;;18.38;16.50;;;;;;;24.28;82.61;152143.63;5136282;27;20186;-62
2022/10/06 07:35:20;;;;;;;19.08;17.15;;;;;;;24.63;82.04;152231.75;5136120;27;20183;-62
2022/10/06 07:37:48;;;;;;;18.58;14.30;;;;;;;24.89;81.98;152298.22;5118305;27;20179;-63
2022/10/06 07:40:16;;;;;;;10.27;9.35;;;;;;;25.24;77.09;152386.38;5135980;27;20676;-63
2022/10/06 07:42:51;;;;;;;10.70;8.88;;;;;;;25.35;75.69;152414.47;5136057;27;20194;-63
2022/10/06 07:45:39;;;;;;;8.95;6.88;;;;;;;25.67;74.90;152496.34;5136434;27;20205;-63
2022/10/06 07:48:09;;;;;;;8.40;7.30;;;;;;;25.51;74.44;152454.06;5136027;27;20220;-62
2022/10/06 07:50:39;;;;;;;9.80;6.95;;;;;;;25.79;72.95;152525.72;5135763;27;20199;-64
2022/10/06 07:53:07;;;;;;;8.48;6.72;;;;;;;26.21;68.51;152633.16;5135854;27;20187;-63
2022/10/06 07:55:38;;;;;;;7.32;6.75;;;;;;;26.29;66.00;152653.59;5135817;27;20183;-64
2022/10/06 07:58:08;;;;;;;7.57;6.63;;;;;;;26.54;64.91;152716.25;5136012;27;20182;-64
2022/10/06 08:00:35;;;;;;;11.40;7.97;;;;;;;26.48;65.40;152699.63;5136310;27;20628;-63
2022/10/06 08:03:01;;;;;;;12.70;11.50;;;;;;;26.63;63.62;152737.97;5136259;27;20632;-64
2022/10/06 08:05:28;;;;;;;12.60;11.38;;;;;;;26.95;64.19;152818.56;5135820;27;20182;-64
2022/10/06 08:07:57;;;;;;;13.88;12.55;;;;;;;26.91;60.31;152809.63;5140914;27;20198;-63
2022/10/06 08:10:24;;;;;;;11.80;10.82;;;;;;;26.14;60.75;152613.94;5135613;27;20300;-63
2022/10/06 08:12:51;;;;;;;11.32;10.25;;;;;;;26.49;63.28;152702.16;5135949;27;20207;-63
2022/10/06 08:15:19;;;;;;;9.88;9.15;;;;;;;26.79;59.33;152780.19;5135356;27;20182;-64
2022/10/06 08:17:46;;;;;;;8.73;7.95;;;;;;;26.88;57.60;152800.69;5134271;27;20194;-64
2022/10/06 08:20:15;;;;;;;8.05;7.43;;;;;;;27.00;57.62;152831.38;5134985;27;20689;-63
2022/10/06 08:22:43;;;;;;;7.95;7.00;;;;;;;27.25;55.03;152896.63;5135239;27;20183;-64
2022/10/06 08:25:11;;;;;;;4.63;4.15;;;;;;;27.49;49.76;152956.81;5135555;27;20182;-64
2022/10/06 08:27:39;;;;;;;3.70;3.38;;;;;;;27.74;51.30;153018.22;5135352;27;20187;-64
2022/10/06 08:30:07;;;;;;;3.58;2.83;;;;;;;28.43;48.02;153194.88;5135546;27;20179;-63
2022/10/06 08:32:34;;;;;;;1.20;1.10;;;;;;;29.03;42.78;153346.03;5135140;27;20229;-64
2022/10/06 08:35:02;;;;;;;5.55;1.80;;;;;;;28.53;44.01;153220.50;5135299;27;20269;-64
2022/10/06 08:37:29;;;;;;;3.22;2.38;;;;;;;28.78;42.75;153282.00;5135305;27;20641;-64
2022/10/06 08:39:57;;;;;;;5.10;2.85;;;;;;;29.36;41.61;153430.66;5132552;27;20572;-64
2022/10/06 08:42:35;;;;;;;2.55;2.33;;;;;;;29.52;41.69;153470.34;5134582;27;20201;-65
2022/10/06 08:45:05;;;;;;;2.85;2.65;;;;;;;29.01;42.65;153342.22;5135140;27;20210;-64
2022/10/06 08:47:36;;;;;;;8.43;3.60;;;;;;;29.74;40.86;153525.44;5135352;27;20570;-64
2022/10/06 08:50:09;;;;;;;2.60;2.40;;;;;;;29.57;40.88;153483.19;5135029;27;20202;-65
2022/10/06 08:52:50;;;;;;;2.97;2.60;;;;;;;29.73;39.63;153524.16;5134601;27;20263;-64
2022/10/06 08:55:29;;;;;;;7.55;2.85;;;;;;;30.33;38.76;153676.72;5134598;27;20190;-64
2022/10/06 08:58:20;;;;;;;2.72;2.50;;;;;;;30.02;38.39;153595.94;5135063;27;20182;-65
2022/10/06 09:00:47;;;;;;;5.22;2.30;;;;;;;29.85;38.61;153553.63;5134875;27;20186;-65
2022/10/06 09:03:22;;;;;;;2.45;2.35;;;;;;;29.64;38.39;153499.81;5135278;27;20186;-64
2022/10/06 09:05:53;;;;;;;2.90;2.65;;;;;;;29.70;38.03;153515.19;5134455;27;20186;-64
2022/10/06 09:08:40;;;;;;;4.97;2.25;;;;;;;30.21;37.63;153644.66;5134106;27;20183;-63
2022/10/06 09:11:31;;;;;;;8.65;2.30;;;;;;;30.09;36.90;153615.16;5134213;27;20206;-64
2022/10/06 09:14:08;;;;;;;1.90;1.77;;;;;;;30.27;37.91;153660.03;5140990;27;20189;-64
2022/10/06 09:16:40;;;;;;;2.08;1.92;;;;;;;31.14;36.41;153880.66;5124209;27;20277;-64
2022/10/06 09:19:14;;;;;;;2.15;1.70;;;;;;;30.85;36.15;153807.53;5147970;27;20194;-64
2022/10/06 09:21:44;;;;;;;5.15;1.45;;;;;;;31.23;33.73;153903.75;5137900;27;20218;-64
2022/10/06 09:24:15;;;;;;;2.00;1.90;;;;;;;31.18;34.35;153892.19;5134484;27;20187;-64
2022/10/06 09:26:44;;;;;;;2.38;1.45;;;;;;;30.54;34.15;153728.03;5134396;27;20256;-64
2022/10/06 09:29:13;;;;;;;3.58;2.03;;;;;;;30.05;34.95;153604.91;5133399;27;20198;-64
2022/10/06 09:31:42;;;;;;;1.63;1.25;;;;;;;29.36;34.07;153430.66;5134262;27;20199;-63
2022/10/06 09:34:24;;;;;;;1.15;1.02;;;;;;;28.92;34.20;153319.16;5134448;27;20189;-65
2022/10/06 09:37:02;;;;;;;2.92;1.52;;;;;;;28.91;35.28;153316.59;5134126;27;20553;-64
2022/10/06 09:39:32;;;;;;;2.63;1.65;;;;;;;29.37;35.35;153431.91;5134104;27;20183;-64
2022/10/06 09:42:03;;;;;;;1.00;1.00;;;;;;;29.09;33.63;153361.41;5134367;27;20609;-64
2022/10/06 09:44:43;;;;;;;1.42;1.33;;;;;;;29.15;34.86;153375.53;5134067;27;20222;-64
2022/10/06 09:47:33;;;;;;;1.35;1.23;;;;;;;27.94;35.81;153069.41;5134763;27;20564;-63
2022/10/06 09:50:20;;;;;;;1.33;1.23;;;;;;;26.79;37.09;152780.19;5134087;27;20552;-64
2022/10/06 09:53:20;;;;;;;2.40;1.52;;;;;;;26.88;37.29;152801.97;5133458;27;20252;-64
2022/10/06 09:55:53;;;;;;;2.40;1.50;;;;;;;27.92;36.41;153064.31;5050721;28;20253;-65
2022/10/06 09:58:31;;;;;;;1.88;1.70;;;;;;;27.95;38.03;153071.97;5051259;28;20197;-64
2022/10/06 10:01:01;;;;;;;2.78;1.83;;;;;;;28.23;37.69;153143.69;5050285;28;20259;-65
2022/10/06 10:03:43;;;;;;;2.42;1.65;;;;;;;27.77;38.48;153025.91;5050097;28;20199;-64
2022/10/06 10:06:22;;;;;;;3.22;1.50;;;;;;;26.44;39.69;152690.66;5050417;28;20223;-63
2022/10/06 10:08:49;;;;;;;1.55;1.52;;;;;;;25.97;41.53;152571.69;5049911;28;20193;-63
2022/10/06 10:14:16;;;;;;;1.60;1.50;;;;;;;26.23;41.02;152636.94;5043544;28;20227;-64
2022/10/06 10:16:44;;;;;;;2.40;1.10;;;;;;;26.53;40.68;152713.66;5030676;28;20604;-63
2022/10/06 10:19:23;;;;;;;1.30;1.20;;;;;;;26.60;39.32;152731.59;5062385;28;20259;-64
2022/10/06 10:22:19;;;;;;;4.28;2.10;;;;;;;26.78;41.79;152777.59;5055601;28;20263;-63
2022/10/06 10:24:55;;;;;;;3.53;1.90;;;;;;;27.07;41.66;152849.31;5049651;28;20224;-63
2022/10/06 10:27:26;;;;;;;1.92;1.50;;;;;;;27.33;39.66;152915.78;5097827;28;20581;-63
2022/10/06 10:30:01;;;;;;;3.58;2.63;;;;;;;27.56;39.65;152973.44;5094459;28;20202;-67
2022/10/06 10:32:59;;;;;;;1.48;1.38;;;;;;;27.84;37.65;153043.84;5113131;28;20216;-65
2022/10/06 10:35:29;;;;;;;1.08;1.08;;;;;;;27.56;36.76;152974.72;5112389;28;20188;-64
2022/10/06 10:38:01;;;;;;;1.88;1.23;;;;;;;27.13;38.41;152864.63;5112934;28;20186;-66
2022/10/06 10:40:41;;;;;;;1.75;1.20;;;;;;;27.08;38.05;152851.84;5112554;28;20542;-64
2022/10/06 10:43:23;;;;;;;2.78;1.42;;;;;;;27.51;39.98;152961.91;5112612;28;20190;-64
2022/10/06 10:45:53;;;;;;;1.48;1.23;;;;;;;26.74;40.83;152767.38;5112438;28;20187;-64
2022/10/06 10:48:29;;;;;;;2.40;1.85;;;;;;;26.28;44.26;152649.75;5094484;28;20186;-63
2022/10/06 10:51:01;;;;;;;1.83;1.73;;;;;;;26.70;41.75;152757.16;5112205;28;20187;-63
2022/10/06 10:53:35;;;;;;;4.75;4.38;;;;;;;27.12;40.76;152862.06;5112743;28;20574;-64
2022/10/06 10:56:03;;;;;;;2.30;1.45;;;;;;;26.06;40.77;152593.44;5112312;28;20182;-63
2022/10/06 10:58:35;;;;;;;1.10;1.10;;;;;;;25.73;42.84;152510.38;5112735;28;20612;-64
2022/10/06 11:01:12;;;;;;;1.40;1.30;;;;;;;25.69;43.37;152501.44;5112323;28;20187;-63
2022/10/06 11:03:40;;;;;;;1.77;1.42;;;;;;;25.73;43.98;152510.38;5112402;28;20201;-64
2022/10/06 11:06:21;;;;;;;2.00;1.90;;;;;;;24.17;51.65;152116.84;5112385;28;20194;-64
2022/10/06 11:08:56;;;;;;;2.40;1.88;;;;;;;22.51;64.14;151696.88;5112774;28;20284;-64
2022/10/06 11:11:39;;;;;;;2.33;1.73;;;;;;;22.23;60.77;151628.06;5112742;28;20183;-63
2022/10/06 11:14:15;;;;;;;1.77;1.52;;;;;;;21.76;59.85;151509.44;5112413;28;20179;-65
2022/10/06 11:16:50;;;;;;;2.92;1.58;;;;;;;21.62;60.17;151473.72;5113704;28;20186;-64
2022/10/06 11:19:28;;;;;;;2.03;1.80;;;;;;;21.53;64.97;151449.50;5114260;28;20276;-64
2022/10/06 11:22:03;;;;;;;2.40;1.75;;;;;;;21.16;65.30;151357.78;5112943;28;20274;-64
2022/10/06 11:24:38;;;;;;;2.03;1.65;;;;;;;21.26;64.62;151383.22;5112980;28;20552;-65
2022/10/06 11:27:16;;;;;;;2.38;1.70;;;;;;;21.22;66.86;151373.03;5112329;28;20193;-65
2022/10/06 11:30:00;;;;;;;5.20;2.42;;;;;;;20.94;69.16;151301.66;5112058;28;20187;-64
2022/10/06 11:32:39;;;;;;;3.50;1.77;;;;;;;20.83;72.33;151273.66;5112427;28;20203;-65
2022/10/06 11:35:18;;;;;;;6.07;1.65;;;;;;;20.88;69.29;151286.34;5111963;28;20187;-64